Holtson Crossroads, South Carolina
Current Conditions -  °F | °C
As of 2:35 PM on Thursday 30 Oct 2014 (Local Time) from KAIK Reporting Station
Clear Clear  
Wind Chill: 70°   Ceiling: Unl
Heat Index: 70°   Visibility: 10mi
Dew Point: 46°   Wind: 8mph
Humidity: 43%   Direction: 10°N
Pressure: 30"   Gusts: NA
Location:  33.9549°N, 81.564°W
Report Text: KAIK 301835Z AUTO 01007KT 10SM CLR 21/08 A3000 RMK AO2 PNO
Loading
Personal Weather Stations






























Interactive Weather Map
Tropical Storm Tracking
New forecast layout! Learn more

10-Day Weather Forecast

Advertisements
Track Severe Weather on mobile